LiveATC.Net - Listen to live air traffic control over the Internet! Contact LiveATC.net for advertising information


ICAO: KSEE  IATA: SEE   Airport: Gillespie Field Airport
City: San Diego/El Cajon   State/Province: California
Country: United States   Continent: North America
KSEE METAR Weather: KSEE 242255Z AUTO 28009KT 10SM CLR 36/11 A2978 RMK AO2
KSEE Flight Activity (FlightAware)
KSEE Airport Info   (AirNav) (iFlightPlanner)
KSEE Tower
Feed Status: DOWN
Last heard on: 2014-07-15 19:46:03 (9 days 3 hours 17 minutes ago)
KSEE Tower Audio Archives
FacilityFrequency
Gillespie Tower120.700
Gillespie Tower123.800

Sponsored by: Rison Aviation, Kenny Shepherd, Brian Fink: www.risonav.com


NOTICE

Unauthorized use prohibited. See LiveATC.net Terms of Service


Find LiveATC Audio Streams


Airport/ARTCC Code

Frequency
(e.g., 124.400, 128.75)
Site-wide search

Browse LiveATC Feeds
LiveATC Coverage Map
Top 50 LiveATC Feeds
Bad Weather Areas

LiveATC FAQ
Offer a LiveATC Feed
Contact LiveATC.net
Press Inquiries

LiveATC on iPhone
LiveATC on Android

LiveATC Mobile
(Mobile browser)

ATC Audio Archives
Interesting Recordings

LiveATC Forums


Home Page
About LiveATC.net
Make a Donation
LiveATC Bookstore

Terms of Use
Privacy Policy

ATC/Radar Sites
U.S. ARTCC Freqs
Canadian Air Freqs

AIRMETs/SIGMETs

FAA Airport Status
Nat'l Airspace Status
Arrival Demand Charts


Server Software By:
Icecast.org
Liquidsoap

Please make a donation to help us keep growing!